Time;durP1;ratioP1;P1;durP2;ratioP2;P2;SDS_P1;SDS_P2;PMS_P1;PMS_P2;Temp;Humidity;BMP_temperature;BMP_pressure;BME280_temperature;BME280_humidity;BME280_pressure;Samples;Min_cycle;Max_cycle;Signal;HPM_P1;HPM_P2
2022/07/05 00:02:10;;;;;;;1.10;1.00;;;17.90;77.30;;;;;;6232059;23;20054;-76
2022/07/05 00:04:35;;;;;;;1.20;1.10;;;17.80;77.50;;;;;;6232066;23;20012;-76
2022/07/05 00:07:20;;;;;;;2.10;0.95;;;17.70;78.20;;;;;;6231489;23;20012;-77
2022/07/05 00:09:54;;;;;;;1.45;0.93;;;17.70;79.00;;;;;;6232119;23;20096;-76
2022/07/05 00:12:23;;;;;;;1.27;1.08;;;17.60;79.90;;;;;;6232508;23;20082;-76
2022/07/05 00:14:49;;;;;;;1.60;0.95;;;17.60;80.50;;;;;;6230538;23;20008;-76
2022/07/05 00:17:16;;;;;;;1.67;1.08;;;17.60;80.70;;;;;;6242608;23;20091;-76
2022/07/05 00:19:42;;;;;;;1.80;0.90;;;17.60;80.40;;;;;;6231725;23;20042;-76
2022/07/05 00:22:08;;;;;;;1.20;1.10;;;17.60;79.60;;;;;;6231411;23;20012;-76
2022/07/05 00:24:34;;;;;;;1.10;0.95;;;17.60;79.40;;;;;;6232247;23;20065;-76
2022/07/05 00:27:00;;;;;;;2.17;1.10;;;17.60;79.50;;;;;;6231607;23;20004;-76
2022/07/05 00:29:26;;;;;;;1.10;0.90;;;17.60;79.50;;;;;;6241056;23;20112;-76
2022/07/05 00:31:52;;;;;;;1.83;0.93;;;17.60;79.50;;;;;;6214850;23;20462;-76
2022/07/05 00:34:17;;;;;;;1.10;0.95;;;17.60;79.40;;;;;;6204818;23;20346;-77
2022/07/05 00:36:43;;;;;;;2.60;1.10;;;17.60;79.50;;;;;;6204035;23;20008;-76
2022/07/05 00:39:09;;;;;;;1.10;1.00;;;17.50;79.20;;;;;;6204104;23;20594;-76
2022/07/05 00:41:35;;;;;;;1.35;0.90;;;17.50;79.60;;;;;;6204271;23;20016;-76
2022/07/05 00:44:06;;;;;;;1.05;1.00;;;17.50;79.80;;;;;;6231019;23;20508;-76
2022/07/05 00:46:33;;;;;;;1.33;1.05;;;17.50;79.50;;;;;;6204374;23;20537;-76
2022/07/05 00:49:00;;;;;;;0.90;0.90;;;17.40;78.70;;;;;;6241344;23;20011;-76
2022/07/05 00:51:28;;;;;;;1.00;0.90;;;17.40;78.60;;;;;;6241350;23;20008;-76
2022/07/05 00:53:54;;;;;;;1.08;0.70;;;17.40;78.50;;;;;;6229600;23;20051;-76
2022/07/05 00:56:22;;;;;;;2.47;1.00;;;17.40;78.40;;;;;;6241435;23;20008;-76
2022/07/05 00:58:48;;;;;;;2.45;1.10;;;17.40;78.20;;;;;;6229817;23;20043;-75
2022/07/05 01:01:15;;;;;;;1.85;0.80;;;17.40;77.60;;;;;;6204722;23;20346;-75
2022/07/05 01:03:41;;;;;;;1.63;0.82;;;17.30;77.50;;;;;;6204446;23;20012;-75
2022/07/05 01:06:09;;;;;;;1.85;1.00;;;17.20;77.50;;;;;;6204327;23;20019;-75
2022/07/05 01:08:38;;;;;;;1.10;1.00;;;17.10;77.80;;;;;;6204886;23;20142;-75
2022/07/05 01:11:04;;;;;;;1.00;0.80;;;17.10;78.10;;;;;;6230653;23;20004;-75
2022/07/05 01:13:31;;;;;;;1.50;1.00;;;17.10;78.30;;;;;;6203917;23;20064;-75
2022/07/05 01:15:57;;;;;;;3.75;1.00;;;17.00;78.30;;;;;;6203356;23;20016;-74
2022/07/05 01:18:23;;;;;;;2.10;0.90;;;17.00;79.30;;;;;;6240719;23;20004;-75
2022/07/05 01:20:49;;;;;;;1.02;1.02;;;17.00;78.70;;;;;;6203309;23;20015;-74
2022/07/05 01:23:18;;;;;;;1.08;0.98;;;16.90;78.60;;;;;;6203628;23;20042;-74
2022/07/05 01:25:45;;;;;;;0.80;0.80;;;16.90;78.70;;;;;;6203625;23;20438;-75
2022/07/05 01:28:11;;;;;;;4.45;1.20;;;16.90;78.50;;;;;;6230108;23;20493;-74
2022/07/05 01:30:39;;;;;;;1.55;1.00;;;16.90;78.50;;;;;;6203853;23;20032;-74
2022/07/05 01:33:07;;;;;;;3.08;1.30;;;16.90;79.10;;;;;;6240973;23;20066;-75
2022/07/05 01:35:34;;;;;;;0.80;0.80;;;16.90;78.60;;;;;;6230490;23;20043;-75
2022/07/05 01:38:00;;;;;;;1.10;1.10;;;16.80;78.60;;;;;;6202554;23;20038;-74
2022/07/05 01:40:26;;;;;;;1.20;1.05;;;16.90;78.60;;;;;;6230817;23;20012;-74
2022/07/05 01:42:52;;;;;;;2.35;1.17;;;16.80;78.50;;;;;;6240162;23;20367;-75
2022/07/05 01:48:08;;;;;;;1.05;0.95;;;16.80;78.70;;;;;;6203114;23;20012;-74
2022/07/05 01:51:01;;;;;;;1.02;0.93;;;16.70;78.60;;;;;;6202467;23;20012;-74
2022/07/05 01:53:31;;;;;;;1.10;0.90;;;16.70;78.80;;;;;;6241306;23;20008;-74
2022/07/05 01:56:02;;;;;;;0.73;0.73;;;16.60;79.20;;;;;;6230858;23;20004;-74
2022/07/05 01:58:29;;;;;;;2.83;1.10;;;16.60;79.30;;;;;;6202728;23;20020;-74
2022/07/05 02:00:56;;;;;;;2.65;1.00;;;16.50;79.40;;;;;;6202538;23;20019;-75
2022/07/05 02:03:25;;;;;;;2.67;0.98;;;16.50;79.50;;;;;;6231377;23;20008;-74
2022/07/05 02:05:52;;;;;;;1.55;1.08;;;16.40;79.60;;;;;;6201968;23;20019;-75
2022/07/05 02:08:20;;;;;;;1.65;1.13;;;16.50;79.50;;;;;;6203282;23;20012;-75
2022/07/05 02:10:46;;;;;;;0.93;0.82;;;16.40;79.40;;;;;;6230579;23;20016;-75
2022/07/05 02:13:12;;;;;;;1.00;0.95;;;16.30;79.50;;;;;;6240118;23;20015;-74
2022/07/05 02:15:40;;;;;;;1.80;1.40;;;16.30;79.80;;;;;;6203237;23;20038;-75
2022/07/05 02:18:08;;;;;;;1.40;1.30;;;16.20;79.90;;;;;;6229798;23;20031;-75
2022/07/05 02:20:38;;;;;;;2.53;1.20;;;16.20;80.00;;;;;;6203427;23;20008;-75
2022/07/05 02:23:04;;;;;;;1.05;1.00;;;16.10;80.10;;;;;;6203031;23;20010;-75
2022/07/05 02:25:30;;;;;;;1.63;1.30;;;16.10;80.00;;;;;;6203460;23;20054;-74
2022/07/05 02:27:59;;;;;;;1.38;1.20;;;16.10;80.60;;;;;;6227479;23;20032;-75
2022/07/05 02:30:25;;;;;;;1.58;1.05;;;16.10;80.90;;;;;;6203778;23;20058;-74
2022/07/05 02:32:52;;;;;;;1.30;1.20;;;16.00;81.00;;;;;;6202779;23;20424;-75
2022/07/05 02:35:17;;;;;;;1.50;1.10;;;16.00;81.30;;;;;;6229346;23;20099;-75
2022/07/05 02:37:44;;;;;;;1.65;1.40;;;16.00;81.50;;;;;;6204347;23;20004;-75
2022/07/05 02:40:12;;;;;;;1.10;1.10;;;15.90;82.30;;;;;;6229077;23;20012;-74
2022/07/05 02:42:41;;;;;;;1.20;1.10;;;15.90;82.00;;;;;;6241567;23;20443;-74
2022/07/05 02:45:10;;;;;;;3.38;1.92;;;15.90;82.20;;;;;;6230568;23;20031;-74
2022/07/05 02:47:37;;;;;;;1.30;0.98;;;15.90;82.50;;;;;;6205720;23;20020;-75
2022/07/05 02:50:04;;;;;;;1.23;1.13;;;15.90;82.70;;;;;;6203866;23;20020;-74
2022/07/05 02:52:33;;;;;;;3.65;1.35;;;15.80;82.80;;;;;;6205316;23;20016;-75
2022/07/05 02:55:00;;;;;;;2.83;1.45;;;15.80;83.00;;;;;;6205404;23;20012;-75
2022/07/05 02:57:26;;;;;;;2.42;1.30;;;15.80;83.30;;;;;;6203905;23;20098;-74
2022/07/05 02:59:56;;;;;;;6.00;1.50;;;15.80;83.60;;;;;;6204032;23;20347;-76
2022/07/05 03:02:24;;;;;;;2.20;1.50;;;15.70;83.90;;;;;;6203681;23;20008;-76
2022/07/05 03:04:51;;;;;;;1.60;1.30;;;15.70;84.20;;;;;;6231722;23;20012;-76
2022/07/05 03:07:18;;;;;;;1.40;1.30;;;15.70;84.40;;;;;;6204268;23;20012;-76
2022/07/05 03:09:45;;;;;;;1.45;1.13;;;15.70;85.10;;;;;;6203892;23;20499;-76
2022/07/05 03:12:13;;;;;;;1.23;1.15;;;15.70;84.40;;;;;;6204058;23;20016;-76
2022/07/05 03:14:39;;;;;;;2.15;1.33;;;15.70;84.40;;;;;;6229043;23;20082;-76
2022/07/05 03:17:04;;;;;;;1.98;1.20;;;15.70;84.40;;;;;;6204424;23;20011;-76
2022/07/05 03:19:30;;;;;;;1.00;1.00;;;15.70;84.80;;;;;;6240652;23;20004;-76
2022/07/05 03:21:56;;;;;;;4.28;1.38;;;15.70;84.80;;;;;;6203917;23;20016;-76
2022/07/05 03:24:23;;;;;;;2.10;1.90;;;15.60;84.90;;;;;;6204810;23;20027;-75
2022/07/05 03:26:49;;;;;;;1.20;1.10;;;15.60;85.10;;;;;;6204443;23;20489;-76
2022/07/05 03:29:14;;;;;;;1.33;1.20;;;15.60;85.20;;;;;;6204283;23;20008;-76
2022/07/05 03:31:42;;;;;;;3.03;1.50;;;15.70;85.40;;;;;;6229809;23;20012;-76
2022/07/05 03:34:08;;;;;;;1.60;1.50;;;15.60;85.50;;;;;;6202879;23;20015;-76
2022/07/05 03:36:34;;;;;;;1.75;1.58;;;15.60;85.60;;;;;;6204035;23;20008;-76
2022/07/05 03:39:04;;;;;;;3.17;1.65;;;15.70;85.60;;;;;;6229380;23;20620;-75
2022/07/05 03:41:31;;;;;;;3.53;1.50;;;15.60;85.50;;;;;;6203156;23;20012;-76
2022/07/05 03:43:57;;;;;;;1.40;1.30;;;15.60;85.60;;;;;;6204251;23;20468;-76
2022/07/05 03:46:23;;;;;;;2.50;1.45;;;15.60;86.00;;;;;;6203914;23;20016;-75
2022/07/05 03:48:49;;;;;;;1.85;1.30;;;15.60;86.40;;;;;;6204096;23;20019;-76
2022/07/05 03:51:17;;;;;;;3.70;2.13;;;15.60;86.70;;;;;;6204805;23;20012;-76
2022/07/05 03:53:43;;;;;;;2.80;1.40;;;15.60;87.00;;;;;;6230197;23;20008;-76
2022/07/05 03:56:10;;;;;;;3.38;1.17;;;15.60;87.10;;;;;;6230500;23;20004;-76
2022/07/05 03:58:36;;;;;;;1.40;1.30;;;15.70;87.20;;;;;;6204712;23;20012;-76
2022/07/05 04:01:04;;;;;;;2.03;1.40;;;15.70;87.20;;;;;;6205310;23;20012;-76
2022/07/05 04:03:30;;;;;;;3.70;1.90;;;15.80;87.20;;;;;;6231441;23;20070;-76
2022/07/05 04:05:57;;;;;;;2.15;1.58;;;15.70;87.30;;;;;;6205118;23;20100;-76
2022/07/05 04:08:23;;;;;;;2.42;1.52;;;15.80;87.50;;;;;;6241958;23;20493;-76
2022/07/05 04:10:49;;;;;;;2.42;1.52;;;15.80;87.50;;;;;;6204900;23;20019;-76
2022/07/05 04:13:17;;;;;;;1.90;1.73;;;15.80;87.40;;;;;;6205280;23;20065;-76
2022/07/05 04:15:44;;;;;;;2.50;1.70;;;15.90;87.40;;;;;;6230094;23;20012;-76
2022/07/05 04:18:10;;;;;;;3.45;1.60;;;15.90;87.50;;;;;;6229383;23;20008;-76
2022/07/05 04:20:39;;;;;;;2.28;1.63;;;15.90;87.50;;;;;;6204442;23;20012;-73
2022/07/05 04:23:07;;;;;;;2.85;1.50;;;15.90;87.70;;;;;;6204868;23;20031;-73
2022/07/05 04:25:34;;;;;;;2.28;1.67;;;16.00;87.80;;;;;;6204256;23;20027;-74
2022/07/05 04:28:07;;;;;;;1.95;1.50;;;16.00;87.90;;;;;;6204265;23;20042;-73
2022/07/05 04:30:36;;;;;;;5.03;1.65;;;16.00;88.00;;;;;;6204796;23;20008;-76
2022/07/05 04:33:03;;;;;;;3.97;1.55;;;16.10;88.80;;;;;;6204349;23;20011;-73
2022/07/05 04:35:29;;;;;;;3.90;1.98;;;16.10;88.30;;;;;;6204614;23;20089;-76
2022/07/05 04:37:55;;;;;;;1.73;1.60;;;16.20;88.30;;;;;;6231551;23;20019;-76
2022/07/05 04:40:22;;;;;;;3.30;1.90;;;16.20;88.40;;;;;;6204307;23;20012;-74
2022/07/05 04:42:48;;;;;;;2.75;1.92;;;16.30;88.70;;;;;;6204702;23;20466;-73
2022/07/05 04:45:16;;;;;;;4.32;2.00;;;16.30;88.80;;;;;;6204217;23;20012;-76
2022/07/05 04:47:42;;;;;;;2.63;1.90;;;16.30;88.60;;;;;;6204376;23;20163;-76
2022/07/05 04:50:08;;;;;;;1.95;1.70;;;16.40;88.50;;;;;;6203545;23;20415;-75
2022/07/05 04:52:34;;;;;;;2.25;1.95;;;16.40;88.50;;;;;;6179396;23;20012;-73
2022/07/05 04:55:00;;;;;;;1.98;1.55;;;16.50;88.70;;;;;;6230720;23;20019;-76
2022/07/05 04:57:26;;;;;;;1.90;1.70;;;16.50;88.70;;;;;;6231918;23;20035;-73
2022/07/05 04:59:52;;;;;;;2.75;1.77;;;16.60;88.80;;;;;;6240393;23;20070;-76
2022/07/05 05:02:18;;;;;;;1.70;1.55;;;16.70;88.60;;;;;;6231248;23;20069;-74
2022/07/05 05:04:44;;;;;;;2.67;1.50;;;16.70;88.30;;;;;;6231096;23;20016;-74
2022/07/05 05:07:10;;;;;;;3.28;1.58;;;16.80;88.30;;;;;;6231540;23;20472;-74
2022/07/05 05:09:36;;;;;;;2.47;1.35;;;16.90;88.10;;;;;;6204002;23;20016;-73
2022/07/05 05:12:02;;;;;;;1.83;1.23;;;16.90;87.80;;;;;;6231173;23;20008;-74
2022/07/05 05:14:27;;;;;;;1.92;1.40;;;17.00;87.80;;;;;;6204275;23;20705;-74
2022/07/05 05:16:53;;;;;;;3.22;1.42;;;17.10;87.60;;;;;;6240633;23;20542;-74
2022/07/05 05:19:19;;;;;;;2.95;1.17;;;17.20;87.30;;;;;;6230066;23;20343;-74
2022/07/05 05:21:45;;;;;;;2.70;1.30;;;17.30;86.40;;;;;;6241650;23;20027;-74
2022/07/05 05:24:10;;;;;;;1.48;1.30;;;17.30;86.30;;;;;;6241208;23;20015;-74
2022/07/05 05:26:36;;;;;;;2.72;1.42;;;17.50;85.90;;;;;;6231091;23;20008;-74
2022/07/05 05:29:02;;;;;;;2.25;1.10;;;17.50;85.30;;;;;;6230096;23;20087;-74
2022/07/05 05:31:27;;;;;;;6.05;1.40;;;17.70;84.90;;;;;;6204229;23;20111;-74
2022/07/05 05:33:53;;;;;;;2.50;1.35;;;18.00;83.90;;;;;;6240363;23;19999;-74
2022/07/05 05:36:19;;;;;;;5.20;1.13;;;18.10;82.80;;;;;;6231449;23;20009;-74
2022/07/05 05:38:45;;;;;;;2.97;1.20;;;18.20;82.50;;;;;;6230930;23;20008;-74
2022/07/05 05:41:11;;;;;;;5.53;1.33;;;18.20;82.60;;;;;;6230407;23;20421;-74
2022/07/05 05:43:36;;;;;;;2.25;1.25;;;18.30;81.40;;;;;;6231323;23;20008;-74
2022/07/05 05:46:03;;;;;;;2.60;1.00;;;18.30;80.20;;;;;;6230013;23;20097;-74
2022/07/05 05:48:29;;;;;;;1.92;1.10;;;18.40;77.10;;;;;;6230501;23;20022;-74
2022/07/05 05:50:55;;;;;;;3.00;1.10;;;18.50;76.40;;;;;;6241073;23;20012;-74
2022/07/05 05:53:21;;;;;;;3.03;1.02;;;18.50;76.80;;;;;;6231164;23;20346;-74
2022/07/05 05:55:46;;;;;;;3.08;1.02;;;18.70;76.10;;;;;;6240875;23;20004;-74
2022/07/05 05:58:18;;;;;;;1.48;1.02;;;18.70;76.10;;;;;;6230794;22;20112;-74
2022/07/05 06:00:47;;;;;;;2.33;1.33;;;18.80;75.80;;;;;;6231424;23;20008;-74
2022/07/05 06:03:14;;;;;;;4.90;1.50;;;18.90;74.90;;;;;;6231044;23;20078;-74
2022/07/05 06:05:40;;;;;;;4.13;1.20;;;19.00;73.40;;;;;;6231239;23;20312;-74
2022/07/05 06:08:06;;;;;;;2.53;0.82;;;19.10;73.50;;;;;;6230303;23;20119;-74
2022/07/05 06:10:34;;;;;;;1.27;0.90;;;19.20;74.60;;;;;;6241079;23;20047;-74
2022/07/05 06:13:03;;;;;;;2.42;0.88;;;19.30;75.00;;;;;;6241872;23;20023;-73
2022/07/05 06:15:29;;;;;;;4.38;1.40;;;19.50;74.60;;;;;;6205494;23;20015;-74
2022/07/05 06:17:54;;;;;;;2.95;1.15;;;19.60;71.30;;;;;;6241581;23;20004;-73
2022/07/05 06:20:26;;;;;;;1.60;1.15;;;19.70;70.20;;;;;;6232408;23;20117;-74
2022/07/05 06:22:52;;;;;;;1.90;1.13;;;19.80;71.20;;;;;;6232592;23;20792;-74
2022/07/05 06:25:19;;;;;;;3.85;1.35;;;19.90;71.20;;;;;;6231525;23;20012;-73
2022/07/05 06:27:50;;;;;;;1.95;0.90;;;19.90;70.20;;;;;;6205766;23;20022;-74
2022/07/05 06:30:17;;;;;;;2.13;1.35;;;19.90;70.10;;;;;;6232416;23;20046;-74
2022/07/05 06:32:44;;;;;;;1.85;1.10;;;20.00;70.00;;;;;;6232205;23;20310;-74
2022/07/05 06:35:11;;;;;;;2.00;1.10;;;20.10;68.80;;;;;;6204978;23;20015;-74
2022/07/05 06:37:44;;;;;;;2.67;1.33;;;20.20;68.60;;;;;;6233386;23;20004;-74
2022/07/05 06:40:12;;;;;;;1.05;0.90;;;20.30;67.80;;;;;;6231897;23;20004;-74
2022/07/05 06:42:38;;;;;;;3.67;1.10;;;20.30;67.80;;;;;;6205264;23;20450;-74
2022/07/05 06:45:05;;;;;;;3.90;1.25;;;20.40;68.50;;;;;;6232045;23;20012;-74
2022/07/05 06:47:32;;;;;;;3.15;1.40;;;20.50;67.60;;;;;;6231911;23;20035;-74
2022/07/05 06:49:59;;;;;;;2.08;1.10;;;20.60;64.70;;;;;;6231925;23;20084;-74
2022/07/05 06:52:24;;;;;;;3.95;1.25;;;20.60;65.70;;;;;;6241635;23;20442;-74
2022/07/05 06:54:50;;;;;;;2.38;1.10;;;20.70;66.00;;;;;;6241858;23;20014;-74
2022/07/05 06:57:22;;;;;;;2.15;1.40;;;20.70;66.80;;;;;;6232158;23;20012;-74
2022/07/05 06:59:49;;;;;;;5.03;1.60;;;20.80;66.20;;;;;;6231865;23;20092;-74
2022/07/05 07:02:15;;;;;;;3.92;1.63;;;20.90;65.60;;;;;;6230934;23;20012;-74
2022/07/05 07:04:41;;;;;;;5.22;1.20;;;20.90;64.90;;;;;;6231762;23;20023;-75
2022/07/05 07:09:17;;;;;;;2.42;1.33;;;21.00;65.60;;;;;;6230206;23;20008;-75
2022/07/05 07:09:56;;;;;;;3.67;1.10;;;21.10;65.00;;;;;;6241324;23;20051;-74
2022/07/05 07:12:22;;;;;;;2.70;1.20;;;21.20;64.00;;;;;;6232506;23;20016;-72
2022/07/05 07:14:48;;;;;;;4.10;1.55;;;21.20;64.10;;;;;;6231834;23;20386;-73
2022/07/05 07:17:13;;;;;;;1.25;1.15;;;21.30;65.40;;;;;;6230978;23;20019;-73
2022/07/05 07:19:39;;;;;;;2.40;1.23;;;21.50;64.20;;;;;;6230547;23;20430;-73
2022/07/05 07:22:05;;;;;;;2.17;1.10;;;21.60;63.10;;;;;;6232012;23;20354;-75
2022/07/05 07:24:30;;;;;;;2.58;1.20;;;21.80;62.40;;;;;;6230692;23;20008;-72
2022/07/05 07:27:02;;;;;;;4.40;0.90;;;21.90;61.20;;;;;;6230193;23;20041;-73
2022/07/05 07:29:28;;;;;;;2.25;1.00;;;22.00;61.80;;;;;;6230682;23;20016;-69
2022/07/05 07:31:55;;;;;;;1.95;1.00;;;22.10;62.00;;;;;;6240502;23;20037;-71
2022/07/05 07:34:21;;;;;;;0.88;0.88;;;22.10;60.40;;;;;;6230210;23;20012;-72
2022/07/05 07:36:48;;;;;;;3.00;1.08;;;22.30;59.00;;;;;;6230059;23;20008;-71
2022/07/05 07:39:13;;;;;;;1.23;0.80;;;22.40;58.10;;;;;;6240417;23;20008;-72
2022/07/05 07:41:39;;;;;;;1.65;0.90;;;22.50;58.90;;;;;;6241621;23;20012;-71
2022/07/05 07:44:05;;;;;;;2.97;1.63;;;22.60;58.30;;;;;;6231686;23;20011;-75
2022/07/05 07:46:31;;;;;;;4.78;0.88;;;22.60;56.80;;;;;;6231208;23;20012;-72
2022/07/05 07:48:57;;;;;;;1.42;0.68;;;22.60;56.50;;;;;;6230379;23;20023;-72
2022/07/05 07:51:23;;;;;;;1.88;1.00;;;22.60;57.50;;;;;;6231838;23;20123;-72
2022/07/05 07:53:49;;;;;;;3.40;1.17;;;22.60;57.30;;;;;;6230821;23;20028;-72
2022/07/05 07:56:15;;;;;;;1.70;0.93;;;22.70;57.30;;;;;;6203191;23;20194;-73
2022/07/05 07:58:41;;;;;;;1.70;0.85;;;22.80;57.50;;;;;;6230088;22;20008;-71
2022/07/05 08:01:10;;;;;;;1.38;0.85;;;22.80;56.50;;;;;;6230933;23;20063;-70
2022/07/05 08:03:40;;;;;;;4.80;1.38;;;22.90;56.40;;;;;;6214026;23;20119;-71
2022/07/05 08:06:07;;;;;;;3.28;1.40;;;22.90;55.50;;;;;;6231145;23;20008;-71
2022/07/05 08:08:34;;;;;;;5.07;1.63;;;22.90;55.60;;;;;;6229615;23;20019;-71
2022/07/05 08:11:00;;;;;;;3.97;2.42;;;22.90;56.00;;;;;;6229267;23;20107;-68
2022/07/05 08:13:26;;;;;;;3.28;1.08;;;22.90;56.40;;;;;;6229690;23;20451;-71
2022/07/05 08:15:52;;;;;;;1.40;0.90;;;22.90;56.90;;;;;;6239031;23;20008;-79
2022/07/05 08:23:47;;;;;;;2.67;1.13;;;23.10;55.90;;;;;;6231829;23;20495;-71
2022/07/05 08:26:12;;;;;;;2.95;0.77;;;23.10;56.10;;;;;;6231510;23;20015;-71
2022/07/05 08:28:38;;;;;;;2.13;0.70;;;23.10;56.10;;;;;;6231645;23;20753;-72
2022/07/05 08:31:04;;;;;;;3.30;1.10;;;23.10;54.90;;;;;;6231010;23;20346;-72
2022/07/05 08:33:30;;;;;;;1.10;0.75;;;23.10;54.70;;;;;;6232111;23;20087;-72
2022/07/05 08:35:56;;;;;;;2.67;0.85;;;23.10;56.00;;;;;;6231436;23;20433;-73
2022/07/05 08:38:22;;;;;;;1.65;0.82;;;23.20;56.00;;;;;;6240658;23;20010;-73
2022/07/05 08:40:51;;;;;;;5.43;0.80;;;23.30;55.10;;;;;;6241974;23;20729;-73
2022/07/05 08:43:19;;;;;;;2.72;0.93;;;23.40;55.10;;;;;;6231503;23;20409;-72
2022/07/05 08:45:47;;;;;;;2.22;0.85;;;23.40;55.60;;;;;;6231558;23;20016;-72
2022/07/05 08:48:19;;;;;;;1.73;0.60;;;23.40;54.80;;;;;;6231273;23;20036;-72
2022/07/05 08:50:48;;;;;;;3.13;0.75;;;23.40;55.00;;;;;;6232016;23;20094;-72
2022/07/05 08:53:15;;;;;;;3.42;1.13;;;23.50;53.50;;;;;;6231356;23;20020;-72
2022/07/05 08:55:42;;;;;;;1.20;1.00;;;23.50;56.40;;;;;;6231033;23;20016;-72
2022/07/05 08:58:08;;;;;;;1.15;0.90;;;23.50;53.90;;;;;;6214116;23;20004;-72
2022/07/05 09:00:36;;;;;;;2.92;0.80;;;23.70;54.30;;;;;;6230653;23;20007;-71
2022/07/05 09:03:02;;;;;;;5.60;2.72;;;23.60;55.00;;;;;;6241646;23;20008;-72
2022/07/05 09:05:30;;;;;;;2.05;1.30;;;23.60;54.80;;;;;;6231569;23;20022;-72
2022/07/05 09:08:00;;;;;;;3.80;1.02;;;23.60;55.50;;;;;;6230581;23;20088;-72
2022/07/05 09:10:28;;;;;;;4.10;0.82;;;23.60;55.30;;;;;;6241272;23;20012;-73
2022/07/05 09:12:56;;;;;;;2.30;1.00;;;23.80;55.10;;;;;;6241704;23;20004;-73
2022/07/05 09:15:22;;;;;;;2.22;1.00;;;23.90;54.50;;;;;;6240859;23;20008;-73
2022/07/05 09:17:48;;;;;;;2.28;0.77;;;24.00;54.70;;;;;;6231005;23;20012;-72
2022/07/05 09:20:19;;;;;;;1.70;0.80;;;24.00;55.20;;;;;;6240933;23;20016;-72
2022/07/05 09:22:49;;;;;;;1.55;0.80;;;24.20;54.90;;;;;;6203197;23;20058;-73
2022/07/05 09:25:19;;;;;;;2.50;1.00;;;24.20;54.10;;;;;;6230863;23;20016;-78
2022/07/05 09:28:04;;;;;;;2.78;1.10;;;24.40;53.70;;;;;;6230390;23;20386;-75
2022/07/05 09:30:31;;;;;;;0.90;0.70;;;24.40;52.60;;;;;;6231063;23;20350;-74
2022/07/05 09:33:17;;;;;;;1.90;0.85;;;24.40;53.30;;;;;;6230308;23;20103;-74
2022/07/05 09:35:51;;;;;;;1.48;0.80;;;24.40;53.10;;;;;;6241138;23;20000;-74
2022/07/05 09:38:22;;;;;;;1.63;0.73;;;24.40;52.90;;;;;;6230323;23;20008;-74
2022/07/05 09:40:50;;;;;;;3.03;0.95;;;24.30;53.30;;;;;;6231113;23;20012;-71
2022/07/05 09:43:18;;;;;;;3.22;0.93;;;24.20;53.10;;;;;;6230172;23;20008;-75
2022/07/05 09:46:04;;;;;;;2.63;0.77;;;24.20;53.00;;;;;;6227023;23;20014;-74
2022/07/05 09:48:32;;;;;;;1.48;0.95;;;24.20;53.10;;;;;;6202747;23;20008;-74
2022/07/05 09:51:06;;;;;;;2.50;0.90;;;24.30;52.90;;;;;;6228616;23;20066;-73
2022/07/05 09:54:04;;;;;;;61.92;39.08;;;24.50;52.80;;;;;;6224969;23;20019;-73
2022/07/05 09:56:42;;;;;;;4.22;3.60;;;24.70;52.80;;;;;;6187347;23;20717;-74
2022/07/05 09:59:13;;;;;;;2.65;1.30;;;24.80;52.50;;;;;;6225744;23;20521;-74
2022/07/05 10:01:40;;;;;;;2.78;1.17;;;24.90;51.90;;;;;;6227563;23;20128;-74
2022/07/05 10:04:08;;;;;;;6.07;3.65;;;25.00;51.80;;;;;;6231398;23;20122;-73
2022/07/05 10:06:33;;;;;;;2.15;1.13;;;25.10;51.30;;;;;;6203795;23;20014;-74
2022/07/05 10:09:00;;;;;;;1.98;0.82;;;25.00;51.20;;;;;;6231559;23;20088;-74
2022/07/05 10:11:29;;;;;;;9.85;1.73;;;24.90;52.20;;;;;;6231549;23;20334;-74
2022/07/05 10:13:55;;;;;;;15.05;8.57;;;24.80;51.20;;;;;;6231659;23;20062;-75
2022/07/05 10:16:22;;;;;;;6.50;2.78;;;24.80;51.20;;;;;;6231113;23;20016;-74
2022/07/05 10:18:52;;;;;;;3.08;1.75;;;24.80;52.10;;;;;;6230196;23;20008;-73
2022/07/05 10:21:18;;;;;;;1.77;1.38;;;24.80;52.10;;;;;;6229322;23;20350;-74
2022/07/05 10:23:55;;;;;;;1.73;1.17;;;24.80;52.60;;;;;;6228739;23;20032;-73
2022/07/05 10:26:22;;;;;;;2.70;1.00;;;24.80;51.30;;;;;;6229236;23;20034;-75
2022/07/05 10:28:51;;;;;;;3.00;0.88;;;24.80;50.80;;;;;;6238350;23;20084;-75
2022/07/05 10:31:17;;;;;;;1.90;1.20;;;24.80;52.10;;;;;;6231286;23;20568;-74
2022/07/05 10:33:44;;;;;;;1.23;1.13;;;25.00;51.00;;;;;;6230830;23;20082;-75
2022/07/05 10:36:11;;;;;;;2.35;1.30;;;25.00;51.10;;;;;;6229764;23;20338;-74
2022/07/05 10:38:42;;;;;;;2.83;1.50;;;25.10;50.50;;;;;;6230264;23;20008;-73
2022/07/05 10:41:14;;;;;;;1.52;1.10;;;25.20;50.40;;;;;;6229985;23;20015;-74
2022/07/05 10:43:40;;;;;;;2.63;1.02;;;25.30;50.40;;;;;;6229882;23;20363;-72
2022/07/05 10:46:07;;;;;;;1.20;1.02;;;25.40;50.60;;;;;;6239164;23;20505;-75
2022/07/05 10:48:34;;;;;;;2.60;1.17;;;25.40;50.70;;;;;;6230388;23;20868;-73
2022/07/05 10:51:14;;;;;;;2.30;1.00;;;25.40;50.70;;;;;;6240356;23;20014;-73
2022/07/05 10:53:40;;;;;;;2.30;0.90;;;25.30;51.00;;;;;;6230098;23;20438;-73
2022/07/05 10:56:06;;;;;;;2.60;1.00;;;25.20;50.60;;;;;;6227713;23;20012;-75
2022/07/05 10:58:39;;;;;;;2.42;1.30;;;25.20;49.20;;;;;;6229076;23;20012;-76
2022/07/05 11:01:20;;;;;;;3.53;1.00;;;25.20;50.40;;;;;;6231724;23;20008;-75
2022/07/05 11:03:49;;;;;;;2.92;0.93;;;25.20;50.40;;;;;;6230003;23;20019;-76
2022/07/05 11:06:26;;;;;;;1.17;0.98;;;25.30;50.80;;;;;;6241992;23;20688;-77
2022/07/05 11:09:00;;;;;;;2.28;0.93;;;25.30;50.70;;;;;;6231551;23;20008;-71
2022/07/05 11:11:35;;;;;;;2.28;1.00;;;25.30;48.80;;;;;;6230811;23;20012;-77
2022/07/05 11:14:03;;;;;;;3.47;0.90;;;25.30;50.00;;;;;;6231936;23;20023;-74
2022/07/05 11:16:34;;;;;;;2.33;1.00;;;25.40;50.30;;;;;;6242566;23;20006;-81
2022/07/05 11:19:09;;;;;;;3.20;1.27;;;25.40;49.00;;;;;;6241988;23;20008;-78
2022/07/05 11:21:37;;;;;;;2.50;1.00;;;25.50;50.00;;;;;;6241275;23;20015;-76
2022/07/05 11:24:23;;;;;;;3.28;1.17;;;25.60;50.70;;;;;;6231298;23;20019;-71
2022/07/05 11:26:52;;;;;;;3.35;1.10;;;25.60;49.70;;;;;;6240419;23;20008;-70
2022/07/05 11:29:51;;;;;;;0.70;0.70;;;25.80;48.20;;;;;;6229582;23;20150;-71
2022/07/05 11:32:21;;;;;;;2.92;1.80;;;25.80;49.30;;;;;;6158608;23;20062;-76
2022/07/05 11:34:53;;;;;;;2.85;1.10;;;25.80;48.00;;;;;;6231028;23;20019;-75
2022/07/05 11:37:28;;;;;;;9.00;1.30;;;25.80;49.30;;;;;;6231089;23;20043;-74
2022/07/05 11:40:12;;;;;;;4.78;1.33;;;25.80;46.60;;;;;;6230990;23;20016;-73
2022/07/05 11:42:48;;;;;;;5.38;2.67;;;25.80;49.60;;;;;;6230854;23;20015;-74
2022/07/05 11:45:14;;;;;;;3.67;1.92;;;25.80;47.90;;;;;;6241705;23;20039;-75
2022/07/05 11:47:41;;;;;;;3.28;1.00;;;25.90;48.10;;;;;;6203912;23;20722;-75
2022/07/05 11:50:08;;;;;;;2.28;1.15;;;25.80;49.10;;;;;;6230479;23;20077;-74
2022/07/05 11:52:36;;;;;;;2.20;1.25;;;25.90;47.80;;;;;;6231836;23;20019;-77
2022/07/05 11:55:10;;;;;;;2.30;0.93;;;26.00;47.70;;;;;;6230314;23;20008;-75
2022/07/05 11:57:36;;;;;;;2.47;1.20;;;26.10;47.80;;;;;;6230903;22;20011;-75
2022/07/05 12:00:04;;;;;;;3.53;1.20;;;26.20;47.70;;;;;;6241061;23;20023;-76
2022/07/05 12:02:43;;;;;;;3.80;1.42;;;26.30;48.50;;;;;;6232759;23;20016;-75
2022/07/05 12:05:09;;;;;;;2.85;1.02;;;26.10;47.00;;;;;;6231898;23;20016;-75
2022/07/05 12:07:34;;;;;;;1.10;1.00;;;26.10;47.30;;;;;;6243103;23;20010;-75
2022/07/05 12:12:49;;;;;;;3.45;1.30;;;26.10;46.40;;;;;;6231140;23;20016;-76
2022/07/05 12:15:15;;;;;;;3.08;1.10;;;26.20;48.00;;;;;;6240142;23;20462;-78
2022/07/05 12:17:43;;;;;;;1.52;0.93;;;26.40;47.20;;;;;;6240733;23;20004;-78
2022/07/05 12:20:11;;;;;;;5.70;1.10;;;26.40;45.70;;;;;;6230999;23;20019;-80
2022/07/05 12:22:43;;;;;;;3.53;0.95;;;26.30;47.80;;;;;;6241372;23;20645;-80
2022/07/05 12:25:12;;;;;;;1.65;0.75;;;26.20;46.50;;;;;;6231523;23;20046;-77
2022/07/05 12:27:40;;;;;;;2.25;1.13;;;26.20;46.00;;;;;;6230325;23;20541;-76
2022/07/05 12:30:09;;;;;;;2.00;1.00;;;26.20;47.30;;;;;;6230174;23;20008;-82
2022/07/05 12:32:53;;;;;;;2.13;1.23;;;26.20;47.40;;;;;;6230517;23;20850;-80
2022/07/05 12:35:31;;;;;;;3.03;0.98;;;26.20;47.30;;;;;;6203973;23;20810;-81
2022/07/05 12:38:04;;;;;;;2.60;1.00;;;26.20;47.80;;;;;;6240239;23;20027;-80
2022/07/05 12:40:30;;;;;;;2.97;1.20;;;26.20;47.20;;;;;;6203993;23;20008;-82
2022/07/05 12:43:04;;;;;;;1.02;0.80;;;26.20;48.90;;;;;;6203576;23;20015;-80
2022/07/05 12:45:31;;;;;;;2.20;0.90;;;26.00;47.00;;;;;;6231680;23;20063;-80
2022/07/05 12:47:59;;;;;;;2.13;0.95;;;26.10;46.60;;;;;;6230239;23;20129;-80
2022/07/05 12:50:31;;;;;;;3.22;0.80;;;26.20;47.90;;;;;;6241161;23;20023;-79
2022/07/05 12:58:01;;;;;;;1.92;1.00;;;26.20;47.60;;;;;;6242038;23;20103;-80
2022/07/05 12:58:49;;;;;;;4.80;1.10;;;26.10;46.40;;;;;;6231438;22;20610;-78
2022/07/05 13:01:37;;;;;;;34.17;24.08;;;26.10;45.20;;;;;;6232086;23;20016;-78
2022/07/05 13:04:14;;;;;;;4.60;1.65;;;26.10;46.60;;;;;;6232126;23;20346;-79
2022/07/05 13:06:40;;;;;;;2.38;1.10;;;26.20;46.30;;;;;;6232537;23;20135;-78